DAL1715 KSFO-KLAX
Flight info
| Callsign | DAL1715 |
|---|---|
| Flight time | 0h 58m |
| Altitude | 35000 |
| Route | WESLA5 SUSEY EBAYE BURGL IRNMN2 |
| Aircraft | A321/M-SDE3FGHIRWY/LB1 |
Departure
| Time | 2026-05-06 04:07 |
|---|---|
| Airport | San Francisco International Airport (KSFO) |
Arrival
| Time | 2026-05-06 05:05 |
|---|---|
| Airport | Los Angeles International Airport (KLAX) |
| Time | Latitude | Longitude | Altitude | Speed | Heading |
|---|---|---|---|---|---|
| 2026-05-06 03:40 | 37.61439 | -122.38272 | 16 ft | 0 kts | 28° |
| 2026-05-06 03:53 | 37.61425 | -122.38281 | 17 ft | 4 kts | 28° |
| 2026-05-06 03:53 | 37.61403 | -122.38298 | 16 ft | 4 kts | 49° |
| 2026-05-06 03:53 | 37.61393 | -122.38326 | 15 ft | 4 kts | 95° |
| 2026-05-06 03:53 | 37.61397 | -122.38345 | 17 ft | 1 kts | 118° |
| 2026-05-06 03:54 | 37.61398 | -122.38348 | 17 ft | 0 kts | 118° |
| 2026-05-06 03:58 | 37.61394 | -122.38338 | 18 ft | 6 kts | 118° |
| 2026-05-06 03:59 | 37.61353 | -122.38247 | 14 ft | 5 kts | 120° |
| 2026-05-06 03:59 | 37.61350 | -122.38193 | 15 ft | 6 kts | 75° |
| 2026-05-06 03:59 | 37.61372 | -122.38161 | 16 ft | 4 kts | 37° |
| 2026-05-06 03:59 | 37.61395 | -122.38142 | 15 ft | 5 kts | 38° |
| 2026-05-06 04:00 | 37.61395 | -122.38064 | 16 ft | 15 kts | 116° |
| 2026-05-06 04:00 | 37.61330 | -122.37903 | 15 ft | 21 kts | 118° |
| 2026-05-06 04:00 | 37.61271 | -122.37767 | 18 ft | 14 kts | 118° |
| 2026-05-06 04:00 | 37.61231 | -122.37666 | 19 ft | 13 kts | 110° |
| 2026-05-06 04:01 | 37.61238 | -122.37560 | 18 ft | 12 kts | 72° |
| 2026-05-06 04:01 | 37.61283 | -122.37484 | 22 ft | 12 kts | 36° |
| 2026-05-06 04:01 | 37.61374 | -122.37421 | 23 ft | 16 kts | 27° |
| 2026-05-06 04:01 | 37.61469 | -122.37359 | 22 ft | 15 kts | 28° |
| 2026-05-06 04:02 | 37.61541 | -122.37283 | 26 ft | 14 kts | 62° |
| 2026-05-06 04:02 | 37.61563 | -122.37168 | 22 ft | 13 kts | 92° |
| 2026-05-06 04:02 | 37.61531 | -122.37063 | 22 ft | 13 kts | 117° |
| 2026-05-06 04:02 | 37.61478 | -122.36943 | 25 ft | 16 kts | 123° |
| 2026-05-06 04:03 | 37.61401 | -122.36830 | 19 ft | 17 kts | 130° |
| 2026-05-06 04:03 | 37.61335 | -122.36706 | 19 ft | 17 kts | 120° |
| 2026-05-06 04:03 | 37.61279 | -122.36575 | 16 ft | 17 kts | 118° |
| 2026-05-06 04:03 | 37.61224 | -122.36443 | 17 ft | 16 kts | 118° |
| 2026-05-06 04:04 | 37.61177 | -122.36331 | 18 ft | 13 kts | 117° |
| 2026-05-06 04:04 | 37.61135 | -122.36229 | 17 ft | 13 kts | 117° |
| 2026-05-06 04:04 | 37.61097 | -122.36137 | 18 ft | 11 kts | 119° |
| 2026-05-06 04:04 | 37.61067 | -122.36065 | 20 ft | 8 kts | 115° |
| 2026-05-06 04:05 | 37.61052 | -122.36008 | 20 ft | 5 kts | 101° |
| 2026-05-06 04:05 | 37.61054 | -122.35965 | 19 ft | 5 kts | 76° |
| 2026-05-06 04:05 | 37.61081 | -122.35920 | 19 ft | 10 kts | 40° |
| 2026-05-06 04:05 | 37.61152 | -122.35871 | 19 ft | 9 kts | 24° |
| 2026-05-06 04:06 | 37.61197 | -122.35903 | 19 ft | 8 kts | 298° |
| 2026-05-06 04:06 | 37.61231 | -122.35992 | 16 ft | 22 kts | 297° |
| 2026-05-06 04:06 | 37.61420 | -122.36436 | 15 ft | 90 kts | 298° |
| 2026-05-06 04:06 | 37.61796 | -122.37336 | 17 ft | 140 kts | 298° |
| 2026-05-06 04:07 | 37.62307 | -122.38555 | 138 ft | 167 kts | 297° |
| 2026-05-06 04:07 | 37.62836 | -122.39807 | 779 ft | 162 kts | 296° |
| 2026-05-06 04:07 | 37.63348 | -122.41090 | 1309 ft | 166 kts | 295° |
| 2026-05-06 04:07 | 37.63858 | -122.42397 | 1854 ft | 169 kts | 295° |
| 2026-05-06 04:08 | 37.64411 | -122.43812 | 1955 ft | 193 kts | 296° |
| 2026-05-06 04:08 | 37.65073 | -122.45409 | 2106 ft | 219 kts | 297° |
| 2026-05-06 04:08 | 37.65829 | -122.47124 | 2710 ft | 225 kts | 298° |
| 2026-05-06 04:08 | 37.66584 | -122.48885 | 3326 ft | 235 kts | 291° |
| 2026-05-06 04:09 | 37.66828 | -122.50975 | 3696 ft | 250 kts | 259° |
| 2026-05-06 04:09 | 37.66071 | -122.52943 | 4230 ft | 263 kts | 225° |
| 2026-05-06 04:09 | 37.64467 | -122.54056 | 4854 ft | 272 kts | 190° |
| 2026-05-06 04:09 | 37.62540 | -122.53915 | 5469 ft | 280 kts | 163° |
| 2026-05-06 04:10 | 37.60698 | -122.53077 | 6182 ft | 283 kts | 155° |
| 2026-05-06 04:10 | 37.58911 | -122.52062 | 6866 ft | 288 kts | 153° |
| 2026-05-06 04:10 | 37.57051 | -122.51021 | 7551 ft | 292 kts | 154° |
| 2026-05-06 04:10 | 37.55154 | -122.50052 | 8265 ft | 295 kts | 156° |
| 2026-05-06 04:11 | 37.53218 | -122.49160 | 8974 ft | 298 kts | 158° |
| 2026-05-06 04:11 | 37.51248 | -122.48325 | 9692 ft | 300 kts | 160° |
| 2026-05-06 04:11 | 37.49327 | -122.47311 | 10332 ft | 300 kts | 146° |
| 2026-05-06 04:11 | 37.47682 | -122.45699 | 10892 ft | 303 kts | 131° |
| 2026-05-06 04:12 | 37.46182 | -122.43691 | 11027 ft | 325 kts | 129° |
| 2026-05-06 04:12 | 37.44603 | -122.41526 | 11152 ft | 346 kts | 129° |
| 2026-05-06 04:12 | 37.42947 | -122.39242 | 11497 ft | 358 kts | 129° |
| 2026-05-06 04:12 | 37.41250 | -122.36912 | 12047 ft | 363 kts | 129° |
| 2026-05-06 04:13 | 37.39528 | -122.34562 | 12659 ft | 367 kts | 129° |
| 2026-05-06 04:13 | 37.37789 | -122.32203 | 13293 ft | 370 kts | 130° |
| 2026-05-06 04:13 | 37.36045 | -122.29843 | 13911 ft | 373 kts | 130° |
| 2026-05-06 04:13 | 37.34246 | -122.27415 | 14465 ft | 377 kts | 130° |
| 2026-05-06 04:14 | 37.32474 | -122.25023 | 15015 ft | 380 kts | 129° |
| 2026-05-06 04:14 | 37.30644 | -122.22548 | 15585 ft | 383 kts | 129° |
| 2026-05-06 04:14 | 37.28825 | -122.20084 | 16102 ft | 387 kts | 129° |
| 2026-05-06 04:14 | 37.27011 | -122.17627 | 16612 ft | 390 kts | 129° |
| 2026-05-06 04:15 | 37.25132 | -122.15084 | 17126 ft | 394 kts | 129° |
| 2026-05-06 04:15 | 37.23287 | -122.12590 | 17653 ft | 397 kts | 129° |
| 2026-05-06 04:15 | 37.21377 | -122.10013 | 18160 ft | 400 kts | 129° |
| 2026-05-06 04:15 | 37.19436 | -122.07489 | 18607 ft | 404 kts | 131° |
| 2026-05-06 04:16 | 37.17430 | -122.04993 | 19032 ft | 408 kts | 131° |
| 2026-05-06 04:16 | 37.15385 | -122.02514 | 19458 ft | 410 kts | 132° |
| 2026-05-06 04:16 | 37.13318 | -122.00033 | 19898 ft | 413 kts | 132° |
| 2026-05-06 04:16 | 37.11237 | -121.97538 | 20319 ft | 415 kts | 132° |
| 2026-05-06 04:17 | 37.09147 | -121.95027 | 20760 ft | 418 kts | 131° |
| 2026-05-06 04:17 | 37.07050 | -121.92491 | 21190 ft | 420 kts | 131° |
| 2026-05-06 04:17 | 37.04947 | -121.89930 | 21597 ft | 423 kts | 131° |
| 2026-05-06 04:17 | 37.02835 | -121.87350 | 22017 ft | 425 kts | 130° |
| 2026-05-06 04:18 | 37.00712 | -121.84756 | 22425 ft | 428 kts | 130° |
| 2026-05-06 04:18 | 36.98577 | -121.82153 | 22859 ft | 430 kts | 131° |
| 2026-05-06 04:18 | 36.96429 | -121.79540 | 23322 ft | 432 kts | 131° |
| 2026-05-06 04:18 | 36.94272 | -121.76923 | 23711 ft | 434 kts | 131° |
| 2026-05-06 04:19 | 36.92091 | -121.74282 | 24054 ft | 437 kts | 131° |
| 2026-05-06 04:19 | 36.89905 | -121.71641 | 24401 ft | 438 kts | 131° |
| 2026-05-06 04:19 | 36.87710 | -121.68985 | 24745 ft | 440 kts | 130° |
| 2026-05-06 04:19 | 36.85538 | -121.66353 | 25082 ft | 442 kts | 130° |
| 2026-05-06 04:20 | 36.83326 | -121.63674 | 25437 ft | 443 kts | 130° |
| 2026-05-06 04:20 | 36.81110 | -121.60995 | 25829 ft | 444 kts | 130° |
| 2026-05-06 04:20 | 36.78888 | -121.58316 | 26168 ft | 446 kts | 130° |
| 2026-05-06 04:20 | 36.76653 | -121.55626 | 26516 ft | 447 kts | 130° |
| 2026-05-06 04:21 | 36.74415 | -121.52935 | 26843 ft | 448 kts | 130° |
| 2026-05-06 04:21 | 36.72162 | -121.50231 | 27129 ft | 450 kts | 130° |
| 2026-05-06 04:21 | 36.69902 | -121.47520 | 27419 ft | 453 kts | 130° |
| 2026-05-06 04:21 | 36.67620 | -121.44783 | 27712 ft | 455 kts | 130° |
| 2026-05-06 04:22 | 36.65342 | -121.42045 | 27978 ft | 456 kts | 130° |
| 2026-05-06 04:22 | 36.63053 | -121.39294 | 28302 ft | 458 kts | 130° |
| 2026-05-06 04:22 | 36.60757 | -121.36541 | 28593 ft | 459 kts | 130° |
| 2026-05-06 04:23 | 36.56131 | -121.31001 | 29158 ft | 463 kts | 130° |
| 2026-05-06 04:23 | 36.53800 | -121.28219 | 29450 ft | 465 kts | 130° |
| 2026-05-06 04:23 | 36.51461 | -121.25428 | 29743 ft | 467 kts | 129° |
| 2026-05-06 04:23 | 36.49117 | -121.22632 | 30069 ft | 467 kts | 129° |
| 2026-05-06 04:24 | 36.46774 | -121.19840 | 30380 ft | 467 kts | 129° |
| 2026-05-06 04:24 | 36.44430 | -121.17052 | 30691 ft | 466 kts | 129° |
| 2026-05-06 04:24 | 36.42088 | -121.14269 | 30996 ft | 466 kts | 129° |
| 2026-05-06 04:24 | 36.39748 | -121.11492 | 31298 ft | 465 kts | 129° |
| 2026-05-06 04:25 | 36.37410 | -121.08721 | 31631 ft | 464 kts | 129° |
| 2026-05-06 04:25 | 36.35077 | -121.05955 | 31963 ft | 463 kts | 129° |
| 2026-05-06 04:25 | 36.32750 | -121.03197 | 32281 ft | 462 kts | 129° |
| 2026-05-06 04:25 | 36.30458 | -121.00480 | 32593 ft | 462 kts | 129° |
| 2026-05-06 04:26 | 36.28138 | -120.97728 | 32925 ft | 461 kts | 129° |
| 2026-05-06 04:26 | 36.25793 | -120.94948 | 33268 ft | 460 kts | 129° |
| 2026-05-06 04:26 | 36.23511 | -120.92249 | 33620 ft | 459 kts | 129° |
| 2026-05-06 04:26 | 36.21168 | -120.89483 | 33969 ft | 459 kts | 129° |
| 2026-05-06 04:27 | 36.18893 | -120.86803 | 34248 ft | 458 kts | 129° |
| 2026-05-06 04:27 | 36.16556 | -120.84050 | 34488 ft | 457 kts | 129° |
| 2026-05-06 04:27 | 36.14286 | -120.81375 | 34722 ft | 457 kts | 129° |
| 2026-05-06 04:27 | 36.11983 | -120.78666 | 34966 ft | 457 kts | 129° |
| 2026-05-06 04:28 | 36.09677 | -120.75956 | 35084 ft | 457 kts | 129° |
| 2026-05-06 04:28 | 36.05068 | -120.70546 | 35111 ft | 457 kts | 129° |
| 2026-05-06 04:29 | 36.00462 | -120.65152 | 35095 ft | 456 kts | 129° |
| 2026-05-06 04:29 | 35.95851 | -120.59759 | 35093 ft | 456 kts | 129° |
| 2026-05-06 04:30 | 35.91237 | -120.54375 | 35095 ft | 456 kts | 129° |
| 2026-05-06 04:30 | 35.86631 | -120.48997 | 35102 ft | 456 kts | 129° |
| 2026-05-06 04:31 | 35.82018 | -120.43626 | 35121 ft | 456 kts | 129° |
| 2026-05-06 04:31 | 35.77393 | -120.38262 | 35131 ft | 456 kts | 129° |
| 2026-05-06 04:32 | 35.72779 | -120.32906 | 35120 ft | 456 kts | 129° |
| 2026-05-06 04:32 | 35.68165 | -120.27557 | 35130 ft | 456 kts | 129° |
| 2026-05-06 04:33 | 35.63542 | -120.22218 | 35112 ft | 455 kts | 129° |
| 2026-05-06 04:33 | 35.58930 | -120.16897 | 35091 ft | 455 kts | 129° |
| 2026-05-06 04:34 | 35.54323 | -120.11588 | 35106 ft | 454 kts | 129° |
| 2026-05-06 04:34 | 35.49707 | -120.06279 | 34585 ft | 453 kts | 129° |
| 2026-05-06 04:34 | 35.47414 | -120.03650 | 34202 ft | 447 kts | 129° |
| 2026-05-06 04:35 | 35.45150 | -120.01055 | 33947 ft | 445 kts | 129° |
| 2026-05-06 04:35 | 35.42889 | -119.98461 | 33680 ft | 444 kts | 129° |
| 2026-05-06 04:35 | 35.40643 | -119.95883 | 33417 ft | 442 kts | 128° |
| 2026-05-06 04:35 | 35.38401 | -119.93312 | 33158 ft | 440 kts | 128° |
| 2026-05-06 04:36 | 35.36172 | -119.90763 | 32892 ft | 437 kts | 128° |
| 2026-05-06 04:36 | 35.33952 | -119.88227 | 32635 ft | 435 kts | 128° |
| 2026-05-06 04:36 | 35.31774 | -119.85744 | 32376 ft | 432 kts | 128° |
| 2026-05-06 04:36 | 35.29554 | -119.83212 | 32119 ft | 430 kts | 129° |
| 2026-05-06 04:37 | 35.27224 | -119.80871 | 31877 ft | 434 kts | 134° |
| 2026-05-06 04:37 | 35.24830 | -119.78630 | 31616 ft | 432 kts | 134° |
| 2026-05-06 04:37 | 35.22474 | -119.76428 | 31375 ft | 433 kts | 134° |
| 2026-05-06 04:37 | 35.20091 | -119.74205 | 31157 ft | 429 kts | 133° |
| 2026-05-06 04:38 | 35.17723 | -119.72003 | 30909 ft | 427 kts | 133° |
| 2026-05-06 04:38 | 35.15371 | -119.69816 | 30525 ft | 423 kts | 133° |
| 2026-05-06 04:38 | 35.13040 | -119.67647 | 30171 ft | 420 kts | 133° |
| 2026-05-06 04:38 | 35.10725 | -119.65493 | 29754 ft | 417 kts | 133° |
| 2026-05-06 04:39 | 35.08427 | -119.63351 | 29332 ft | 415 kts | 133° |
| 2026-05-06 04:39 | 35.06140 | -119.61221 | 28924 ft | 413 kts | 133° |
| 2026-05-06 04:39 | 35.03866 | -119.59103 | 28539 ft | 411 kts | 133° |
| 2026-05-06 04:39 | 35.01598 | -119.56990 | 28141 ft | 410 kts | 133° |
| 2026-05-06 04:40 | 34.99332 | -119.54882 | 27735 ft | 408 kts | 133° |
| 2026-05-06 04:40 | 34.97075 | -119.52790 | 27364 ft | 406 kts | 134° |
| 2026-05-06 04:40 | 34.94833 | -119.50721 | 26980 ft | 403 kts | 134° |
| 2026-05-06 04:40 | 34.92602 | -119.48662 | 26595 ft | 401 kts | 134° |
| 2026-05-06 04:41 | 34.90381 | -119.46608 | 26217 ft | 400 kts | 135° |
| 2026-05-06 04:41 | 34.88151 | -119.44583 | 25848 ft | 399 kts | 135° |
| 2026-05-06 04:41 | 34.85915 | -119.42581 | 25475 ft | 398 kts | 136° |
| 2026-05-06 04:41 | 34.83678 | -119.40592 | 25113 ft | 398 kts | 136° |
| 2026-05-06 04:42 | 34.81442 | -119.38607 | 24752 ft | 397 kts | 136° |
| 2026-05-06 04:42 | 34.79216 | -119.36626 | 24400 ft | 395 kts | 136° |
| 2026-05-06 04:42 | 34.77749 | -119.35320 | 24175 ft | 395 kts | 136° |
| 2026-05-06 04:42 | 34.75481 | -119.33292 | 23827 ft | 403 kts | 136° |
| 2026-05-06 04:43 | 34.73215 | -119.31272 | 23460 ft | 404 kts | 137° |
| 2026-05-06 04:43 | 34.70973 | -119.29300 | 23049 ft | 403 kts | 137° |
| 2026-05-06 04:43 | 34.68699 | -119.27321 | 22645 ft | 401 kts | 138° |
| 2026-05-06 04:43 | 34.66437 | -119.25363 | 22241 ft | 398 kts | 138° |
| 2026-05-06 04:44 | 34.64193 | -119.23422 | 21859 ft | 394 kts | 139° |
| 2026-05-06 04:44 | 34.61970 | -119.21507 | 21472 ft | 391 kts | 139° |
| 2026-05-06 04:44 | 34.59757 | -119.19603 | 21097 ft | 388 kts | 139° |
| 2026-05-06 04:44 | 34.57562 | -119.17713 | 20715 ft | 386 kts | 139° |
| 2026-05-06 04:45 | 34.55385 | -119.15830 | 20313 ft | 384 kts | 139° |
| 2026-05-06 04:45 | 34.53227 | -119.13937 | 19883 ft | 381 kts | 139° |
| 2026-05-06 04:45 | 34.51096 | -119.12046 | 19454 ft | 378 kts | 139° |
| 2026-05-06 04:45 | 34.48984 | -119.10168 | 19021 ft | 376 kts | 139° |
| 2026-05-06 04:46 | 34.46878 | -119.08295 | 18608 ft | 374 kts | 140° |
| 2026-05-06 04:46 | 34.44785 | -119.06434 | 18161 ft | 373 kts | 140° |
| 2026-05-06 04:46 | 34.42694 | -119.04584 | 17679 ft | 370 kts | 140° |
| 2026-05-06 04:46 | 34.40612 | -119.02766 | 17208 ft | 368 kts | 141° |
| 2026-05-06 04:47 | 34.38538 | -119.00969 | 16760 ft | 365 kts | 141° |
| 2026-05-06 04:47 | 34.36476 | -118.99192 | 16289 ft | 363 kts | 141° |
| 2026-05-06 04:47 | 34.34428 | -118.97428 | 15831 ft | 360 kts | 141° |
| 2026-05-06 04:47 | 34.32407 | -118.95662 | 15393 ft | 357 kts | 141° |
| 2026-05-06 04:48 | 34.30417 | -118.93874 | 14959 ft | 355 kts | 140° |
| 2026-05-06 04:48 | 34.28468 | -118.92097 | 14518 ft | 347 kts | 140° |
| 2026-05-06 04:48 | 34.26572 | -118.90358 | 14105 ft | 336 kts | 140° |
| 2026-05-06 04:48 | 34.24764 | -118.88702 | 13727 ft | 318 kts | 140° |
| 2026-05-06 04:49 | 34.23011 | -118.87088 | 13339 ft | 316 kts | 140° |
| 2026-05-06 04:49 | 34.21272 | -118.85478 | 12955 ft | 314 kts | 140° |
| 2026-05-06 04:49 | 34.19548 | -118.83887 | 12627 ft | 310 kts | 140° |
| 2026-05-06 04:49 | 34.17863 | -118.82336 | 12325 ft | 307 kts | 140° |
| 2026-05-06 04:50 | 34.16179 | -118.80771 | 12021 ft | 304 kts | 138° |
| 2026-05-06 04:50 | 34.14576 | -118.79137 | 11716 ft | 301 kts | 135° |
| 2026-05-06 04:50 | 34.13025 | -118.77456 | 11424 ft | 299 kts | 134° |
| 2026-05-06 04:50 | 34.11498 | -118.75756 | 11130 ft | 298 kts | 134° |
| 2026-05-06 04:51 | 34.09987 | -118.74069 | 10837 ft | 294 kts | 133° |
| 2026-05-06 04:51 | 34.08487 | -118.72410 | 10546 ft | 290 kts | 134° |
| 2026-05-06 04:51 | 34.07002 | -118.70782 | 10268 ft | 287 kts | 134° |
| 2026-05-06 04:51 | 34.05528 | -118.69173 | 9980 ft | 284 kts | 134° |
| 2026-05-06 04:52 | 34.04169 | -118.67495 | 9672 ft | 276 kts | 123° |
| 2026-05-06 04:52 | 34.03215 | -118.65529 | 9363 ft | 270 kts | 109° |
| 2026-05-06 04:52 | 34.02696 | -118.63380 | 9073 ft | 266 kts | 95° |
| 2026-05-06 04:52 | 34.02489 | -118.61167 | 8991 ft | 265 kts | 93° |
| 2026-05-06 04:53 | 34.02283 | -118.58951 | 8894 ft | 267 kts | 94° |
| 2026-05-06 04:53 | 34.02072 | -118.56750 | 8765 ft | 258 kts | 94° |
| 2026-05-06 04:53 | 34.01869 | -118.54678 | 8619 ft | 241 kts | 94° |
| 2026-05-06 04:53 | 34.01676 | -118.52715 | 8322 ft | 233 kts | 94° |
| 2026-05-06 04:54 | 34.01490 | -118.50780 | 7911 ft | 231 kts | 94° |
| 2026-05-06 04:54 | 34.01307 | -118.48855 | 7767 ft | 231 kts | 95° |
| 2026-05-06 04:54 | 34.01125 | -118.46922 | 7608 ft | 232 kts | 94° |
| 2026-05-06 04:54 | 34.01137 | -118.44990 | 7470 ft | 231 kts | 79° |
| 2026-05-06 04:55 | 34.01459 | -118.43089 | 7145 ft | 231 kts | 77° |
| 2026-05-06 04:55 | 34.01785 | -118.41193 | 6831 ft | 231 kts | 77° |
| 2026-05-06 04:55 | 34.02110 | -118.39300 | 6539 ft | 231 kts | 77° |
| 2026-05-06 04:55 | 34.02392 | -118.37396 | 6213 ft | 231 kts | 81° |
| 2026-05-06 04:56 | 34.02629 | -118.35473 | 5895 ft | 232 kts | 81° |
| 2026-05-06 04:56 | 34.02869 | -118.33556 | 5562 ft | 231 kts | 81° |
| 2026-05-06 04:56 | 34.03114 | -118.31650 | 5210 ft | 230 kts | 81° |
| 2026-05-06 04:56 | 34.03365 | -118.29754 | 4873 ft | 229 kts | 81° |
| 2026-05-06 04:57 | 34.03619 | -118.27866 | 4493 ft | 227 kts | 81° |
| 2026-05-06 04:57 | 34.03868 | -118.26001 | 4100 ft | 225 kts | 81° |
| 2026-05-06 04:57 | 34.04114 | -118.24147 | 3719 ft | 223 kts | 81° |
| 2026-05-06 04:57 | 34.04356 | -118.22314 | 3336 ft | 221 kts | 81° |
| 2026-05-06 04:58 | 34.04592 | -118.20484 | 3017 ft | 221 kts | 81° |
| 2026-05-06 04:58 | 34.04827 | -118.18645 | 3006 ft | 223 kts | 81° |
| 2026-05-06 04:58 | 34.05063 | -118.16793 | 3003 ft | 223 kts | 81° |
| 2026-05-06 04:58 | 34.05255 | -118.14935 | 2995 ft | 223 kts | 90° |
| 2026-05-06 04:59 | 34.04797 | -118.13183 | 2996 ft | 222 kts | 125° |
| 2026-05-06 04:59 | 34.03606 | -118.12047 | 2987 ft | 221 kts | 159° |
| 2026-05-06 04:59 | 34.02109 | -118.11921 | 2987 ft | 216 kts | 194° |
| 2026-05-06 04:59 | 34.00854 | -118.12814 | 2999 ft | 207 kts | 225° |
| 2026-05-06 05:00 | 33.99918 | -118.14080 | 3001 ft | 199 kts | 230° |
| 2026-05-06 05:00 | 33.99041 | -118.15362 | 3002 ft | 196 kts | 231° |
| 2026-05-06 05:00 | 33.98194 | -118.16605 | 2999 ft | 186 kts | 231° |
| 2026-05-06 05:00 | 33.97534 | -118.17886 | 2996 ft | 177 kts | 251° |
| 2026-05-06 05:01 | 33.97319 | -118.19337 | 3051 ft | 176 kts | 263° |
| 2026-05-06 05:01 | 33.97173 | -118.20796 | 3034 ft | 175 kts | 263° |
| 2026-05-06 05:01 | 33.97028 | -118.22243 | 2993 ft | 174 kts | 263° |
| 2026-05-06 05:01 | 33.96883 | -118.23682 | 2842 ft | 173 kts | 263° |
| 2026-05-06 05:02 | 33.96738 | -118.25126 | 2627 ft | 173 kts | 263° |
| 2026-05-06 05:02 | 33.96593 | -118.26562 | 2402 ft | 173 kts | 263° |
| 2026-05-06 05:02 | 33.96448 | -118.27994 | 2171 ft | 166 kts | 263° |
| 2026-05-06 05:02 | 33.96316 | -118.29308 | 1948 ft | 152 kts | 262° |
| 2026-05-06 05:03 | 33.96190 | -118.30551 | 1751 ft | 147 kts | 262° |
| 2026-05-06 05:03 | 33.96066 | -118.31772 | 1551 ft | 146 kts | 262° |
| 2026-05-06 05:03 | 33.95943 | -118.32982 | 1359 ft | 146 kts | 262° |
| 2026-05-06 05:03 | 33.95821 | -118.34189 | 1164 ft | 145 kts | 262° |
| 2026-05-06 05:04 | 33.95699 | -118.35392 | 971 ft | 145 kts | 262° |
| 2026-05-06 05:04 | 33.95575 | -118.36590 | 796 ft | 144 kts | 262° |
| 2026-05-06 05:04 | 33.95458 | -118.37797 | 629 ft | 147 kts | 262° |
| 2026-05-06 05:04 | 33.95328 | -118.38998 | 360 ft | 143 kts | 262° |
| 2026-05-06 05:05 | 33.95214 | -118.40169 | 179 ft | 141 kts | 262° |
| 2026-05-06 05:05 | 33.95099 | -118.41278 | 128 ft | 122 kts | 263° |
| 2026-05-06 05:05 | 33.95018 | -118.42073 | 121 ft | 69 kts | 263° |
| 2026-05-06 05:05 | 33.94969 | -118.42461 | 125 ft | 36 kts | 249° |
| 2026-05-06 05:06 | 33.94866 | -118.42658 | 122 ft | 10 kts | 228° |
| 2026-05-06 05:06 | 33.94854 | -118.42674 | 122 ft | 0 kts | 229° |
| 2026-05-06 05:07 | 33.94834 | -118.42699 | 125 ft | 12 kts | 224° |
| 2026-05-06 05:07 | 33.94759 | -118.42757 | 122 ft | 13 kts | 204° |
| 2026-05-06 05:08 | 33.94676 | -118.42781 | 124 ft | 12 kts | 176° |
| 2026-05-06 05:08 | 33.94636 | -118.42714 | 125 ft | 10 kts | 91° |
| 2026-05-06 05:08 | 33.94643 | -118.42632 | 126 ft | 9 kts | 83° |
| 2026-05-06 05:08 | 33.94650 | -118.42557 | 126 ft | 9 kts | 84° |
| 2026-05-06 05:09 | 33.94657 | -118.42486 | 126 ft | 10 kts | 83° |
| 2026-05-06 05:09 | 33.94668 | -118.42372 | 126 ft | 17 kts | 82° |
| 2026-05-06 05:09 | 33.94685 | -118.42214 | 124 ft | 19 kts | 83° |
| 2026-05-06 05:09 | 33.94701 | -118.42057 | 123 ft | 19 kts | 83° |
| 2026-05-06 05:10 | 33.94717 | -118.41906 | 123 ft | 18 kts | 83° |
| 2026-05-06 05:10 | 33.94732 | -118.41759 | 122 ft | 17 kts | 82° |
| 2026-05-06 05:10 | 33.94747 | -118.41618 | 121 ft | 17 kts | 84° |
| 2026-05-06 05:10 | 33.94761 | -118.41482 | 121 ft | 16 kts | 79° |
| 2026-05-06 05:11 | 33.94786 | -118.41354 | 126 ft | 15 kts | 76° |
| 2026-05-06 05:11 | 33.94803 | -118.41224 | 122 ft | 17 kts | 83° |
| 2026-05-06 05:11 | 33.94817 | -118.41080 | 126 ft | 17 kts | 83° |
| 2026-05-06 05:11 | 33.94831 | -118.40941 | 123 ft | 16 kts | 84° |
| 2026-05-06 05:12 | 33.94843 | -118.40804 | 126 ft | 18 kts | 83° |
| 2026-05-06 05:12 | 33.94860 | -118.40639 | 126 ft | 20 kts | 83° |
| 2026-05-06 05:12 | 33.94877 | -118.40473 | 123 ft | 20 kts | 83° |
| 2026-05-06 05:12 | 33.94895 | -118.40313 | 126 ft | 19 kts | 83° |
| 2026-05-06 05:13 | 33.94911 | -118.40163 | 126 ft | 15 kts | 83° |
| 2026-05-06 05:13 | 33.94915 | -118.40114 | 123 ft | 0 kts | 88° |
| 2026-05-06 05:14 | 33.94903 | -118.40083 | 122 ft | 7 kts | 136° |
| 2026-05-06 05:14 | 33.94865 | -118.40084 | 122 ft | 5 kts | 207° |
| 2026-05-06 05:14 | 33.94844 | -118.40120 | 124 ft | 7 kts | 248° |
| 2026-05-06 05:15 | 33.94836 | -118.40173 | 126 ft | 6 kts | 263° |
| 2026-05-06 05:15 | 33.94829 | -118.40230 | 123 ft | 10 kts | 255° |
| 2026-05-06 05:15 | 33.94776 | -118.40264 | 124 ft | 8 kts | 178° |
| 2026-05-06 05:15 | 33.94732 | -118.40256 | 124 ft | 5 kts | 160° |
| 2026-05-06 05:16 | 33.94724 | -118.40228 | 123 ft | 4 kts | 94° |
| 2026-05-06 05:16 | 33.94724 | -118.40212 | 126 ft | 1 kts | 90° |
| 2026-05-06 05:16 | 33.94724 | -118.40204 | 126 ft | 0 kts | 85° |
| 2026-05-06 05:16 | 33.94725 | -118.40202 | 126 ft | 1 kts | 83° |
| 2026-05-06 05:17 | 33.94725 | -118.40196 | 124 ft | 0 kts | 83° |
| 2026-05-06 05:17 | 33.94726 | -118.40192 | 124 ft | 0 kts | 83° |